createdAt,value
2022-09-04T00:01:17.569Z,1.25
2022-09-04T00:03:56.092Z,1.10
2022-09-04T00:06:30.345Z,1.10
2022-09-04T00:09:13.802Z,1.20
2022-09-04T00:11:50.241Z,1.00
2022-09-04T00:14:21.890Z,1.15
2022-09-04T00:16:55.927Z,1.10
2022-09-04T00:19:32.246Z,1.05
2022-09-04T00:22:02.827Z,1.30
2022-09-04T00:24:37.780Z,1.35
2022-09-04T00:27:12.077Z,1.30
2022-09-04T00:29:49.050Z,1.30
2022-09-04T00:32:26.460Z,1.20
2022-09-04T00:35:07.308Z,1.13
2022-09-04T00:37:41.069Z,1.15
2022-09-04T00:40:15.367Z,1.00
2022-09-04T00:43:07.008Z,1.25
2022-09-04T00:45:51.741Z,0.93
2022-09-04T00:48:37.779Z,1.00
2022-09-04T00:51:20.657Z,1.15
2022-09-04T00:54:16.194Z,1.30
2022-09-04T00:57:01.260Z,1.10
2022-09-04T00:59:44.005Z,0.98
2022-09-04T01:02:21.801Z,1.20
2022-09-04T01:04:59.891Z,1.20
2022-09-04T01:07:44.974Z,1.05
2022-09-04T01:10:35.556Z,1.00
2022-09-04T01:13:11.420Z,1.20
2022-09-04T01:15:45.942Z,1.42
2022-09-04T01:18:19.967Z,1.25
2022-09-04T01:21:08.365Z,1.27
2022-09-04T01:23:54.530Z,1.13
2022-09-04T01:26:32.166Z,1.60
2022-09-04T01:29:11.942Z,1.40
2022-09-04T01:31:49.035Z,1.67
2022-09-04T01:34:30.555Z,1.90
2022-09-04T01:37:06.990Z,1.50
2022-09-04T01:39:36.973Z,1.23
2022-09-04T01:42:13.286Z,1.40
2022-09-04T01:44:41.561Z,1.13
2022-09-04T01:47:17.602Z,1.00
2022-09-04T01:49:51.134Z,1.27
2022-09-04T01:52:36.668Z,1.30
2022-09-04T01:55:14.828Z,1.30
2022-09-04T01:57:55.990Z,1.20
2022-09-04T02:00:25.883Z,1.30
2022-09-04T02:03:02.376Z,1.35
2022-09-04T02:05:41.597Z,1.38
2022-09-04T02:08:31.462Z,1.17
2022-09-04T02:11:07.338Z,1.33
2022-09-04T02:13:45.022Z,1.10
2022-09-04T02:16:21.271Z,1.30
2022-09-04T02:19:00.413Z,1.20
2022-09-04T02:21:34.323Z,1.40
2022-09-04T02:24:11.566Z,1.23
2022-09-04T02:26:45.740Z,1.63
2022-09-04T02:29:22.854Z,1.15
2022-09-04T02:31:58.948Z,1.40
2022-09-04T02:34:38.384Z,1.23
2022-09-04T02:37:12.877Z,1.17
2022-09-04T02:39:52.845Z,1.25
2022-09-04T02:42:30.953Z,1.30
2022-09-04T02:45:13.830Z,1.50
2022-09-04T02:47:50.114Z,1.40
2022-09-04T02:50:30.217Z,1.60
2022-09-04T02:53:08.546Z,1.30
2022-09-04T02:55:54.210Z,1.33
2022-09-04T02:58:39.747Z,1.75
2022-09-04T03:01:15.268Z,1.40
2022-09-04T03:03:48.738Z,1.50
2022-09-04T03:06:23.507Z,1.50
2022-09-04T03:08:57.557Z,1.60
2022-09-04T03:11:32.342Z,1.35
2022-09-04T03:14:05.370Z,1.40
2022-09-04T03:16:42.379Z,1.25
2022-09-04T03:19:20.253Z,1.40
2022-09-04T03:21:54.556Z,1.60
2022-09-04T03:24:27.449Z,1.48
2022-09-04T03:26:58.339Z,1.65
2022-09-04T03:29:35.262Z,1.85
2022-09-04T03:32:16.384Z,1.50
2022-09-04T03:34:52.567Z,1.65
2022-09-04T03:37:37.293Z,1.30
2022-09-04T03:40:17.679Z,1.48
2022-09-04T03:43:07.026Z,1.40
2022-09-04T03:45:47.377Z,1.80
2022-09-04T03:48:32.182Z,2.20
2022-09-04T03:51:07.910Z,1.85
2022-09-04T03:53:41.652Z,1.55
2022-09-04T03:56:32.948Z,1.60
2022-09-04T03:59:05.937Z,1.50
2022-09-04T04:01:48.394Z,1.67
2022-09-04T04:04:42.457Z,1.50
2022-09-04T04:07:22.535Z,1.77
2022-09-04T04:10:06.329Z,1.63
2022-09-04T04:13:08.586Z,2.22
2022-09-04T04:15:47.425Z,1.85
2022-09-04T04:18:55.041Z,1.23
2022-09-04T04:21:39.397Z,1.60
2022-09-04T04:24:42.938Z,1.60
2022-09-04T04:27:25.628Z,1.63
2022-09-04T04:30:06.089Z,1.60
2022-09-04T04:33:01.279Z,1.50
2022-09-04T04:35:36.734Z,1.65
2022-09-04T04:38:18.289Z,1.35
2022-09-04T04:41:15.380Z,1.40
2022-09-04T04:43:54.973Z,1.73
2022-09-04T04:46:37.324Z,1.35
2022-09-04T04:49:22.634Z,1.50
2022-09-04T04:52:05.869Z,1.73
2022-09-04T04:54:52.678Z,1.65
2022-09-04T04:57:31.110Z,1.70
2022-09-04T05:00:08.149Z,1.67
2022-09-04T05:02:43.270Z,1.73
2022-09-04T05:05:17.723Z,1.40
2022-09-04T05:08:04.945Z,1.58
2022-09-04T05:10:42.727Z,1.70
2022-09-04T05:13:20.081Z,1.60
2022-09-04T05:16:08.429Z,1.65
2022-09-04T05:18:43.554Z,1.80
2022-09-04T05:21:21.166Z,1.65
2022-09-04T05:23:55.471Z,1.80
2022-09-04T05:26:34.738Z,1.80
2022-09-04T05:29:08.310Z,1.38
2022-09-04T05:31:48.983Z,1.30
2022-09-04T05:34:27.651Z,1.48
2022-09-04T05:37:07.498Z,1.60
2022-09-04T05:39:47.330Z,1.70
2022-09-04T05:42:45.456Z,1.45
2022-09-04T05:45:24.453Z,1.70
2022-09-04T05:48:05.402Z,1.38
2022-09-04T05:50:58.817Z,1.58
2022-09-04T05:53:53.207Z,1.70
2022-09-04T05:56:38.146Z,1.60
2022-09-04T05:59:42.449Z,1.35
2022-09-04T06:02:40.719Z,1.48
2022-09-04T06:05:19.212Z,1.33
2022-09-04T06:07:56.229Z,1.35
2022-09-04T06:10:31.620Z,1.42
2022-09-04T06:13:28.870Z,1.30
2022-09-04T06:16:11.809Z,1.63
2022-09-04T06:18:57.447Z,1.40
2022-09-04T06:21:56.019Z,1.60
2022-09-04T06:24:43.120Z,1.30
2022-09-04T06:27:24.592Z,1.40
2022-09-04T06:30:06.394Z,1.40
2022-09-04T06:33:22.770Z,1.40
2022-09-04T06:36:12.015Z,1.63
2022-09-04T06:38:57.097Z,1.50
2022-09-04T06:41:44.554Z,1.65
2022-09-04T06:44:24.261Z,1.70
2022-09-04T06:47:08.596Z,1.50
2022-09-04T06:49:47.249Z,1.60
2022-09-04T06:52:26.398Z,1.50
2022-09-04T06:55:01.312Z,1.80
2022-09-04T06:57:49.280Z,1.75
2022-09-04T07:00:20.047Z,1.63
2022-09-04T07:03:17.366Z,1.63
2022-09-04T07:05:54.617Z,1.75
2022-09-04T07:08:38.822Z,1.60
2022-09-04T07:11:21.216Z,1.88
2022-09-04T07:14:16.957Z,1.35
2022-09-04T07:16:51.940Z,1.80
2022-09-04T07:19:56.031Z,1.80
2022-09-04T07:22:43.354Z,1.80
2022-09-04T07:25:22.665Z,2.05
2022-09-04T07:28:08.368Z,1.60
2022-09-04T07:30:43.331Z,1.70
2022-09-04T07:33:18.134Z,1.88
2022-09-04T07:35:52.995Z,1.88
2022-09-04T07:38:33.754Z,1.90
2022-09-04T07:41:10.597Z,1.70
2022-09-04T07:43:54.724Z,2.10
2022-09-04T07:46:33.376Z,1.90
2022-09-04T07:49:10.320Z,2.03
2022-09-04T07:51:45.856Z,1.77
2022-09-04T07:54:48.064Z,1.80
2022-09-04T07:57:45.538Z,2.17
2022-09-04T08:00:18.312Z,2.17
2022-09-04T08:03:12.100Z,2.42
2022-09-04T08:05:46.341Z,1.98
2022-09-04T08:08:53.709Z,2.60
2022-09-04T08:12:10.618Z,2.45
2022-09-04T08:15:06.495Z,2.00
2022-09-04T08:18:09.411Z,2.08
2022-09-04T08:20:45.854Z,2.30
2022-09-04T08:23:34.962Z,2.15
2022-09-04T08:26:14.344Z,2.50
2022-09-04T08:29:02.183Z,2.40
2022-09-04T08:31:36.112Z,2.53
2022-09-04T08:34:50.807Z,2.40
2022-09-04T08:37:27.071Z,2.15
2022-09-04T08:40:18.438Z,2.38
2022-09-04T08:43:11.716Z,2.17
2022-09-04T08:46:13.480Z,2.08
2022-09-04T08:49:22.109Z,2.30
2022-09-04T08:52:27.751Z,2.30
2022-09-04T08:55:24.211Z,2.28
2022-09-04T08:58:21.750Z,2.40
2022-09-04T09:01:17.642Z,2.10
2022-09-04T09:04:08.603Z,2.25
2022-09-04T09:07:21.032Z,2.15
2022-09-04T09:10:18.783Z,1.90
2022-09-04T09:13:25.653Z,2.20
2022-09-04T09:16:17.590Z,2.10
2022-09-04T09:19:06.326Z,2.38
2022-09-04T09:21:45.381Z,2.05
2022-09-04T09:24:45.601Z,2.03
2022-09-04T09:27:34.359Z,2.22
2022-09-04T09:30:08.525Z,2.20
2022-09-04T09:33:15.599Z,2.30
2022-09-04T09:36:08.715Z,2.13
2022-09-04T09:39:16.772Z,2.20
2022-09-04T09:42:21.530Z,2.40
2022-09-04T09:45:28.934Z,1.88
2022-09-04T09:48:33.506Z,2.08
2022-09-04T09:51:44.648Z,2.20
2022-09-04T09:54:52.190Z,2.08
2022-09-04T09:57:50.426Z,2.50
2022-09-04T10:00:20.426Z,2.28
2022-09-04T10:03:44.414Z,2.22
2022-09-04T10:07:03.956Z,2.10
2022-09-04T10:10:05.307Z,2.10
2022-09-04T10:13:00.811Z,2.13
2022-09-04T10:15:58.673Z,2.33
2022-09-04T10:19:16.608Z,2.22
2022-09-04T10:22:29.930Z,2.63
2022-09-04T10:25:21.094Z,2.00
2022-09-04T10:28:21.669Z,2.45
2022-09-04T10:31:13.114Z,2.00
2022-09-04T10:33:58.272Z,2.10
2022-09-04T10:36:37.221Z,2.13
2022-09-04T10:39:38.660Z,2.13
2022-09-04T10:42:22.427Z,1.65
2022-09-04T10:45:14.852Z,1.73
2022-09-04T10:48:04.670Z,2.35
2022-09-04T10:50:55.519Z,1.90
2022-09-04T10:53:48.026Z,1.90
2022-09-04T10:56:23.601Z,2.10
2022-09-04T10:59:21.268Z,1.70
2022-09-04T11:02:25.427Z,2.10
2022-09-04T11:05:26.736Z,2.40
2022-09-04T11:08:23.358Z,1.83
2022-09-04T11:11:06.077Z,2.10
2022-09-04T11:14:06.835Z,2.10
2022-09-04T11:16:52.687Z,1.90
2022-09-04T11:20:07.047Z,1.70
2022-09-04T11:23:05.178Z,2.05
2022-09-04T11:26:23.215Z,1.98
2022-09-04T11:29:12.848Z,1.90
2022-09-04T11:32:00.560Z,1.88
2022-09-04T11:35:20.571Z,1.83
2022-09-04T11:38:20.798Z,2.03
2022-09-04T11:41:16.742Z,1.95
2022-09-04T11:44:19.386Z,1.85
2022-09-04T11:47:16.264Z,2.13
2022-09-04T11:49:57.001Z,1.92
2022-09-04T11:52:28.686Z,2.17
2022-09-04T11:55:37.655Z,2.17
2022-09-04T11:58:37.151Z,1.60
2022-09-04T12:01:20.332Z,2.05
2022-09-04T12:04:35.537Z,2.20
2022-09-04T12:07:40.719Z,2.10
2022-09-04T12:10:24.315Z,2.13
2022-09-04T12:13:20.603Z,1.63
2022-09-04T12:16:18.405Z,1.67
2022-09-04T12:19:13.595Z,1.60
2022-09-04T12:22:05.570Z,1.90
2022-09-04T12:24:51.556Z,1.80
2022-09-04T12:28:05.795Z,1.90
2022-09-04T12:30:51.948Z,2.80
2022-09-04T12:33:46.417Z,2.70
2022-09-04T12:36:59.740Z,1.95
2022-09-04T12:39:49.174Z,1.98
2022-09-04T12:42:22.643Z,2.13
2022-09-04T12:45:01.203Z,2.03
2022-09-04T12:47:43.775Z,2.17
2022-09-04T12:50:28.119Z,2.00
2022-09-04T12:53:29.376Z,2.10
2022-09-04T12:56:06.298Z,1.95
2022-09-04T12:59:02.057Z,1.73
2022-09-04T13:01:39.215Z,2.40
2022-09-04T13:04:16.073Z,2.35
2022-09-04T13:06:56.167Z,2.42
2022-09-04T13:09:31.016Z,2.00
2022-09-04T13:12:14.335Z,2.00
2022-09-04T13:15:04.941Z,2.40
2022-09-04T13:17:43.625Z,1.70
2022-09-04T13:20:22.653Z,1.80
2022-09-04T13:23:03.242Z,1.75
2022-09-04T13:25:48.493Z,1.80
2022-09-04T13:28:25.375Z,1.63
2022-09-04T13:31:03.770Z,1.90
2022-09-04T13:33:49.795Z,1.65
2022-09-04T13:36:35.742Z,1.70
2022-09-04T13:39:28.760Z,1.60
2022-09-04T13:42:33.360Z,1.73
2022-09-04T13:45:19.422Z,1.98
2022-09-04T13:47:54.913Z,1.88
2022-09-04T13:50:26.813Z,1.70
2022-09-04T13:52:59.634Z,1.73
2022-09-04T13:55:31.208Z,1.65
2022-09-04T13:58:10.990Z,1.75
2022-09-04T14:00:46.454Z,1.70
2022-09-04T14:03:27.486Z,2.10
2022-09-04T14:05:57.951Z,1.85
2022-09-04T14:08:31.682Z,1.80
2022-09-04T14:11:26.873Z,1.80
2022-09-04T14:14:15.065Z,1.90
2022-09-04T14:16:44.964Z,1.70
2022-09-04T14:19:32.177Z,1.90
2022-09-04T14:22:16.201Z,2.22
2022-09-04T14:24:54.445Z,1.95
2022-09-04T14:27:32.958Z,2.00
2022-09-04T14:30:07.139Z,1.85
2022-09-04T14:32:57.819Z,1.88
2022-09-04T14:35:35.335Z,1.90
2022-09-04T14:38:21.718Z,1.45
2022-09-04T14:40:58.743Z,1.73
2022-09-04T14:43:41.416Z,1.60
2022-09-04T14:46:21.617Z,1.88
2022-09-04T14:49:01.110Z,1.90
2022-09-04T14:51:36.208Z,1.58
2022-09-04T14:54:06.377Z,1.85
2022-09-04T14:56:42.418Z,1.60
2022-09-04T14:59:21.616Z,1.80
2022-09-04T15:02:18.515Z,1.67
2022-09-04T15:04:53.035Z,1.80
2022-09-04T15:07:53.540Z,1.67
2022-09-04T15:10:26.686Z,1.85
2022-09-04T15:13:18.943Z,1.70
2022-09-04T15:15:51.762Z,1.95
2022-09-04T15:18:26.409Z,1.63
2022-09-04T15:21:03.826Z,1.55
2022-09-04T15:23:40.361Z,1.80
2022-09-04T15:26:14.322Z,1.83
2022-09-04T15:28:47.199Z,1.60
2022-09-04T15:31:20.634Z,1.50
2022-09-04T15:33:49.739Z,1.75
2022-09-04T15:36:24.103Z,2.00
2022-09-04T15:38:54.965Z,1.85
2022-09-04T15:41:35.608Z,1.58
2022-09-04T15:44:13.713Z,1.70
2022-09-04T15:46:47.462Z,1.40
2022-09-04T15:49:26.653Z,1.77
2022-09-04T15:52:10.514Z,1.48
2022-09-04T15:55:09.639Z,1.90
2022-09-04T15:57:57.464Z,1.85
2022-09-04T16:00:32.085Z,1.70
2022-09-04T16:03:12.073Z,1.77
2022-09-04T16:05:45.216Z,1.40
2022-09-04T16:08:23.602Z,1.48
2022-09-04T16:10:59.363Z,2.00
2022-09-04T16:13:44.509Z,1.75
2022-09-04T16:16:17.904Z,1.83
2022-09-04T16:18:59.402Z,1.80
2022-09-04T16:21:40.735Z,1.95
2022-09-04T16:24:15.283Z,2.75
2022-09-04T16:26:48.914Z,1.90
2022-09-04T16:29:27.167Z,1.55
2022-09-04T16:31:58.114Z,1.85
2022-09-04T16:34:30.039Z,1.67
2022-09-04T16:37:09.595Z,1.90
2022-09-04T16:39:49.822Z,1.90
2022-09-04T16:42:24.813Z,1.92
2022-09-04T16:44:58.421Z,1.83
2022-09-04T16:47:32.749Z,1.83
2022-09-04T16:50:13.207Z,1.80
2022-09-04T16:53:12.806Z,2.20
2022-09-04T16:55:48.135Z,2.28
2022-09-04T16:58:35.008Z,1.75
2022-09-04T17:01:14.795Z,1.90
2022-09-04T17:04:12.481Z,2.15
2022-09-04T17:07:02.445Z,2.00
2022-09-04T17:09:49.845Z,1.63
2022-09-04T17:12:30.515Z,2.10
2022-09-04T17:15:08.155Z,2.08
2022-09-04T17:17:41.510Z,1.83
2022-09-04T17:20:11.905Z,1.95
2022-09-04T17:28:57.067Z,2.20
2022-09-04T17:29:08.802Z,2.10
2022-09-04T17:29:18.360Z,2.25
2022-09-04T17:31:45.898Z,2.22
2022-09-04T17:40:36.880Z,2.10
2022-09-04T17:40:46.827Z,2.10
2022-09-04T17:41:31.137Z,2.00
2022-09-04T17:43:22.771Z,2.15
2022-09-04T17:46:03.013Z,1.92
2022-09-04T17:48:33.652Z,2.05
2022-09-04T17:51:04.353Z,2.50
2022-09-04T17:53:37.019Z,1.90
2022-09-04T17:56:12.601Z,2.42
2022-09-04T17:58:49.797Z,2.33
2022-09-04T18:01:25.236Z,2.10
2022-09-04T18:04:21.797Z,2.00
2022-09-04T18:06:55.971Z,2.17
2022-09-04T18:09:28.891Z,2.00
2022-09-04T18:12:11.129Z,2.25
2022-09-04T18:14:46.974Z,2.25
2022-09-04T18:17:40.249Z,1.90
2022-09-04T18:20:16.164Z,1.88
2022-09-04T18:23:03.128Z,1.92
2022-09-04T18:25:36.158Z,1.80
2022-09-04T18:28:12.334Z,1.67
2022-09-04T18:37:06.526Z,2.17
2022-09-04T18:37:17.802Z,1.77
2022-09-04T18:37:22.287Z,1.92
2022-09-04T18:39:49.496Z,1.40
2022-09-04T18:50:22.401Z,1.60
2022-09-04T18:50:32.230Z,1.52
2022-09-04T18:50:50.178Z,1.40
2022-09-04T18:51:21.585Z,1.45
2022-09-04T18:53:53.939Z,1.92
2022-09-04T18:56:27.662Z,1.60
2022-09-04T18:59:03.245Z,1.70
2022-09-04T19:01:41.531Z,1.63
2022-09-04T19:04:47.073Z,1.50
2022-09-04T19:07:27.647Z,1.63
2022-09-04T19:10:07.729Z,1.45
2022-09-04T19:12:55.910Z,1.70
2022-09-04T19:15:37.588Z,1.52
2022-09-04T19:18:15.071Z,1.75
2022-09-04T19:20:49.413Z,1.45
2022-09-04T19:23:26.671Z,1.55
2022-09-04T19:25:57.202Z,1.25
2022-09-04T19:28:29.716Z,1.30
2022-09-04T19:31:03.364Z,1.45
2022-09-04T19:33:40.094Z,1.65
2022-09-04T19:36:13.780Z,1.40
2022-09-04T19:46:01.521Z,1.23
2022-09-04T19:46:04.808Z,1.45
2022-09-04T19:46:12.953Z,1.70
2022-09-04T19:47:37.571Z,1.45
2022-09-04T19:52:25.466Z,1.40
2022-09-04T19:53:32.969Z,1.30
2022-09-04T19:56:08.949Z,1.65
2022-09-04T19:58:39.813Z,1.20
2022-09-04T20:01:17.187Z,1.80
2022-09-04T20:03:50.020Z,1.48
2022-09-04T20:06:27.524Z,1.40
2022-09-04T20:09:01.803Z,1.42
2022-09-04T20:11:36.579Z,1.42
2022-09-04T20:14:14.726Z,1.60
2022-09-04T20:16:59.395Z,1.50
2022-09-04T20:19:37.446Z,1.58
2022-09-04T20:22:14.391Z,1.60
2022-09-04T20:25:01.478Z,1.50
2022-09-04T20:27:37.760Z,1.42
2022-09-04T20:30:12.127Z,1.60
2022-09-04T20:32:54.109Z,1.27
2022-09-04T20:35:32.716Z,1.80
2022-09-04T20:38:22.881Z,1.38
2022-09-04T20:40:55.690Z,1.38
2022-09-04T20:43:32.863Z,1.30
2022-09-04T20:51:17.526Z,1.70
2022-09-04T20:52:59.021Z,1.67
2022-09-04T20:53:05.004Z,1.13
2022-09-04T20:55:13.362Z,1.20
2022-09-04T21:03:05.400Z,1.50
2022-09-04T21:03:19.734Z,1.50
2022-09-04T21:04:09.651Z,1.52
2022-09-04T21:06:46.040Z,1.48
2022-09-04T21:09:25.265Z,1.50
2022-09-04T21:11:56.518Z,1.40
2022-09-04T21:14:44.927Z,1.20
2022-09-04T21:17:39.394Z,1.48
2022-09-04T21:20:36.018Z,1.48
2022-09-04T21:23:46.488Z,1.70
2022-09-04T21:26:36.570Z,1.50
2022-09-04T21:29:25.048Z,1.42
2022-09-04T21:32:14.230Z,1.65
2022-09-04T21:34:55.916Z,1.35
2022-09-04T21:37:31.158Z,1.70
2022-09-04T21:40:50.044Z,1.80
2022-09-04T21:43:39.107Z,1.60
2022-09-04T21:46:29.053Z,1.50
2022-09-04T21:49:26.659Z,2.08
2022-09-04T21:52:30.757Z,1.50
2022-09-04T21:58:35.397Z,1.48
2022-09-04T22:02:29.105Z,1.60
2022-09-04T22:02:43.087Z,1.60
2022-09-04T22:04:42.564Z,1.40
2022-09-04T22:13:16.132Z,1.58
2022-09-04T22:13:33.774Z,1.50
2022-09-04T22:13:53.033Z,1.33
2022-09-04T22:16:41.920Z,1.40
2022-09-04T22:19:36.565Z,1.50
2022-09-04T22:22:21.247Z,1.42
2022-09-04T22:25:19.440Z,1.52
2022-09-04T22:28:12.353Z,1.83
2022-09-04T22:31:00.647Z,1.70
2022-09-04T22:34:16.226Z,1.35
2022-09-04T22:37:17.193Z,1.38
2022-09-04T22:39:59.205Z,1.50
2022-09-04T22:42:38.750Z,1.50
2022-09-04T22:45:45.157Z,1.70
2022-09-04T22:48:40.665Z,1.40
2022-09-04T22:51:22.345Z,1.50
2022-09-04T22:54:15.351Z,1.60
2022-09-04T22:56:54.890Z,1.50
2022-09-04T22:59:41.246Z,1.40
2022-09-04T23:03:08.354Z,1.50
2022-09-04T23:07:35.409Z,1.60
2022-09-04T23:13:47.121Z,1.20
2022-09-04T23:13:51.735Z,2.72
2022-09-04T23:15:41.995Z,1.50
2022-09-04T23:20:30.351Z,1.60
2022-09-04T23:26:39.093Z,1.45
2022-09-04T23:26:50.717Z,1.40
2022-09-04T23:27:52.519Z,1.55
2022-09-04T23:30:26.497Z,1.27
2022-09-04T23:33:39.890Z,1.70
2022-09-04T23:36:37.195Z,1.30
2022-09-04T23:39:34.138Z,1.42
2022-09-04T23:42:38.987Z,1.65
2022-09-04T23:45:30.593Z,1.58
2022-09-04T23:48:30.985Z,1.55
2022-09-04T23:51:05.305Z,1.48
2022-09-04T23:53:38.211Z,1.83
2022-09-04T23:56:17.829Z,1.50
2022-09-04T23:59:31.256Z,1.38
